sensor_id;sensor_type;location;lat;lon;timestamp;P1;durP1;ratioP1;P2;durP2;ratioP2
74541;SDS011;63015;45.378;20.360;2023-09-18T00:01:08;15.63;;;6.30;;
74541;SDS011;63015;45.378;20.360;2023-09-18T00:03:08;10.23;;;6.25;;
74541;SDS011;63015;45.378;20.360;2023-09-18T00:05:09;10.55;;;6.53;;
74541;SDS011;63015;45.378;20.360;2023-09-18T00:07:10;13.10;;;6.07;;
74541;SDS011;63015;45.378;20.360;2023-09-18T00:09:12;11.77;;;6.22;;
74541;SDS011;63015;45.378;20.360;2023-09-18T00:11:14;12.80;;;6.88;;
74541;SDS011;63015;45.378;20.360;2023-09-18T00:13:14;10.18;;;6.45;;
74541;SDS011;63015;45.378;20.360;2023-09-18T00:15:15;11.63;;;6.38;;
74541;SDS011;63015;45.378;20.360;2023-09-18T00:17:16;10.13;;;6.28;;
74541;SDS011;63015;45.378;20.360;2023-09-18T00:19:17;10.45;;;6.57;;
74541;SDS011;63015;45.378;20.360;2023-09-18T00:21:18;11.52;;;6.68;;
74541;SDS011;63015;45.378;20.360;2023-09-18T00:23:19;10.77;;;6.65;;
74541;SDS011;63015;45.378;20.360;2023-09-18T00:25:19;15.27;;;6.75;;
74541;SDS011;63015;45.378;20.360;2023-09-18T00:27:20;10.73;;;6.63;;
74541;SDS011;63015;45.378;20.360;2023-09-18T00:29:21;12.65;;;6.50;;
74541;SDS011;63015;45.378;20.360;2023-09-18T00:31:22;11.07;;;6.68;;
74541;SDS011;63015;45.378;20.360;2023-09-18T00:33:22;10.45;;;6.80;;
74541;SDS011;63015;45.378;20.360;2023-09-18T00:35:23;12.32;;;7.07;;
74541;SDS011;63015;45.378;20.360;2023-09-18T00:37:24;12.95;;;7.90;;
74541;SDS011;63015;45.378;20.360;2023-09-18T00:39:25;18.10;;;9.52;;
74541;SDS011;63015;45.378;20.360;2023-09-18T00:41:27;15.15;;;9.55;;
74541;SDS011;63015;45.378;20.360;2023-09-18T00:43:27;16.42;;;10.55;;
74541;SDS011;63015;45.378;20.360;2023-09-18T00:45:28;18.60;;;10.90;;
74541;SDS011;63015;45.378;20.360;2023-09-18T00:47:30;19.75;;;11.43;;
74541;SDS011;63015;45.378;20.360;2023-09-18T00:49:30;16.85;;;11.00;;
74541;SDS011;63015;45.378;20.360;2023-09-18T00:51:32;19.00;;;11.07;;
74541;SDS011;63015;45.378;20.360;2023-09-18T00:53:33;18.00;;;11.07;;
74541;SDS011;63015;45.378;20.360;2023-09-18T00:55:33;16.70;;;11.30;;
74541;SDS011;63015;45.378;20.360;2023-09-18T00:57:37;15.50;;;9.82;;
74541;SDS011;63015;45.378;20.360;2023-09-18T00:59:38;16.70;;;10.60;;
74541;SDS011;63015;45.378;20.360;2023-09-18T01:01:40;13.88;;;9.32;;
74541;SDS011;63015;45.378;20.360;2023-09-18T01:03:42;13.68;;;8.60;;
74541;SDS011;63015;45.378;20.360;2023-09-18T01:05:43;13.98;;;8.73;;
74541;SDS011;63015;45.378;20.360;2023-09-18T01:07:43;14.98;;;8.52;;
74541;SDS011;63015;45.378;20.360;2023-09-18T01:09:44;15.23;;;7.68;;
74541;SDS011;63015;45.378;20.360;2023-09-18T01:13:58;12.27;;;7.50;;
74541;SDS011;63015;45.378;20.360;2023-09-18T01:16:17;13.85;;;7.47;;
74541;SDS011;63015;45.378;20.360;2023-09-18T01:18:25;9.70;;;6.75;;
74541;SDS011;63015;45.378;20.360;2023-09-18T01:20:26;11.55;;;6.50;;
74541;SDS011;63015;45.378;20.360;2023-09-18T01:22:30;11.23;;;6.70;;
74541;SDS011;63015;45.378;20.360;2023-09-18T01:24:32;11.45;;;6.93;;
74541;SDS011;63015;45.378;20.360;2023-09-18T01:26:34;11.43;;;6.32;;
74541;SDS011;63015;45.378;20.360;2023-09-18T01:28:35;10.00;;;6.63;;
74541;SDS011;63015;45.378;20.360;2023-09-18T01:30:35;11.88;;;7.35;;
74541;SDS011;63015;45.378;20.360;2023-09-18T01:32:38;11.88;;;7.60;;
74541;SDS011;63015;45.378;20.360;2023-09-18T01:34:42;13.50;;;7.82;;
74541;SDS011;63015;45.378;20.360;2023-09-18T01:36:46;14.40;;;8.23;;
74541;SDS011;63015;45.378;20.360;2023-09-18T01:38:48;12.88;;;8.05;;
74541;SDS011;63015;45.378;20.360;2023-09-18T01:40:51;12.88;;;7.55;;
74541;SDS011;63015;45.378;20.360;2023-09-18T01:42:53;13.10;;;8.18;;
74541;SDS011;63015;45.378;20.360;2023-09-18T01:44:54;15.80;;;9.70;;
74541;SDS011;63015;45.378;20.360;2023-09-18T01:46:59;18.10;;;10.20;;
74541;SDS011;63015;45.378;20.360;2023-09-18T01:49:02;18.83;;;10.48;;
74541;SDS011;63015;45.378;20.360;2023-09-18T01:51:03;18.38;;;11.75;;
74541;SDS011;63015;45.378;20.360;2023-09-18T01:53:04;24.15;;;14.27;;
74541;SDS011;63015;45.378;20.360;2023-09-18T01:55:05;26.67;;;16.02;;
74541;SDS011;63015;45.378;20.360;2023-09-18T01:57:06;27.25;;;15.50;;
74541;SDS011;63015;45.378;20.360;2023-09-18T01:59:08;23.27;;;14.73;;
74541;SDS011;63015;45.378;20.360;2023-09-18T02:01:10;23.67;;;14.30;;
74541;SDS011;63015;45.378;20.360;2023-09-18T02:03:11;23.67;;;14.68;;
74541;SDS011;63015;45.378;20.360;2023-09-18T02:05:12;22.75;;;14.32;;
74541;SDS011;63015;45.378;20.360;2023-09-18T02:07:13;23.90;;;14.05;;
74541;SDS011;63015;45.378;20.360;2023-09-18T02:09:13;21.75;;;13.23;;
74541;SDS011;63015;45.378;20.360;2023-09-18T02:11:14;21.10;;;13.23;;
74541;SDS011;63015;45.378;20.360;2023-09-18T02:13:15;19.88;;;12.30;;
74541;SDS011;63015;45.378;20.360;2023-09-18T02:15:17;19.35;;;12.02;;
74541;SDS011;63015;45.378;20.360;2023-09-18T02:17:18;19.80;;;12.63;;
74541;SDS011;63015;45.378;20.360;2023-09-18T02:19:20;19.58;;;11.52;;
74541;SDS011;63015;45.378;20.360;2023-09-18T02:21:22;17.10;;;10.77;;
74541;SDS011;63015;45.378;20.360;2023-09-18T02:23:23;17.17;;;10.05;;
74541;SDS011;63015;45.378;20.360;2023-09-18T02:25:24;17.48;;;9.70;;
74541;SDS011;63015;45.378;20.360;2023-09-18T02:27:26;15.05;;;9.20;;
74541;SDS011;63015;45.378;20.360;2023-09-18T02:29:27;15.45;;;9.02;;
74541;SDS011;63015;45.378;20.360;2023-09-18T02:31:29;12.27;;;8.00;;
74541;SDS011;63015;45.378;20.360;2023-09-18T02:33:30;12.55;;;7.45;;
74541;SDS011;63015;45.378;20.360;2023-09-18T02:35:33;14.35;;;7.40;;
74541;SDS011;63015;45.378;20.360;2023-09-18T02:37:33;11.70;;;7.55;;
74541;SDS011;63015;45.378;20.360;2023-09-18T02:39:34;12.60;;;7.72;;
74541;SDS011;63015;45.378;20.360;2023-09-18T02:41:35;14.05;;;7.45;;
74541;SDS011;63015;45.378;20.360;2023-09-18T02:43:35;13.80;;;7.95;;
74541;SDS011;63015;45.378;20.360;2023-09-18T02:45:39;16.27;;;7.88;;
74541;SDS011;63015;45.378;20.360;2023-09-18T02:47:40;12.35;;;7.38;;
74541;SDS011;63015;45.378;20.360;2023-09-18T02:49:42;11.55;;;6.97;;
74541;SDS011;63015;45.378;20.360;2023-09-18T02:51:43;10.57;;;6.97;;
74541;SDS011;63015;45.378;20.360;2023-09-18T02:53:43;13.13;;;7.43;;
74541;SDS011;63015;45.378;20.360;2023-09-18T02:55:45;12.32;;;7.07;;
74541;SDS011;63015;45.378;20.360;2023-09-18T02:57:47;16.17;;;8.20;;
74541;SDS011;63015;45.378;20.360;2023-09-18T02:59:48;11.48;;;7.30;;
74541;SDS011;63015;45.378;20.360;2023-09-18T03:01:49;12.48;;;7.53;;
74541;SDS011;63015;45.378;20.360;2023-09-18T03:03:49;13.93;;;7.78;;
74541;SDS011;63015;45.378;20.360;2023-09-18T03:05:50;14.63;;;7.45;;
74541;SDS011;63015;45.378;20.360;2023-09-18T03:07:51;11.45;;;7.00;;
74541;SDS011;63015;45.378;20.360;2023-09-18T03:09:52;14.65;;;7.93;;
74541;SDS011;63015;45.378;20.360;2023-09-18T03:11:53;12.85;;;8.10;;
74541;SDS011;63015;45.378;20.360;2023-09-18T03:13:54;11.23;;;7.40;;
74541;SDS011;63015;45.378;20.360;2023-09-18T03:15:55;11.55;;;7.55;;
74541;SDS011;63015;45.378;20.360;2023-09-18T03:18:01;14.60;;;7.78;;
74541;SDS011;63015;45.378;20.360;2023-09-18T03:20:03;12.57;;;7.47;;
74541;SDS011;63015;45.378;20.360;2023-09-18T03:22:04;12.07;;;8.23;;
74541;SDS011;63015;45.378;20.360;2023-09-18T03:24:05;11.93;;;7.55;;
74541;SDS011;63015;45.378;20.360;2023-09-18T03:26:06;17.55;;;8.68;;
74541;SDS011;63015;45.378;20.360;2023-09-18T03:28:07;13.35;;;7.10;;
74541;SDS011;63015;45.378;20.360;2023-09-18T03:30:08;14.90;;;7.88;;
74541;SDS011;63015;45.378;20.360;2023-09-18T03:32:10;12.50;;;7.68;;
74541;SDS011;63015;45.378;20.360;2023-09-18T03:34:12;12.77;;;7.75;;
74541;SDS011;63015;45.378;20.360;2023-09-18T03:36:13;14.48;;;7.45;;
74541;SDS011;63015;45.378;20.360;2023-09-18T03:38:15;13.95;;;8.07;;
74541;SDS011;63015;45.378;20.360;2023-09-18T03:40:17;12.60;;;7.72;;
74541;SDS011;63015;45.378;20.360;2023-09-18T03:42:19;12.98;;;7.80;;
74541;SDS011;63015;45.378;20.360;2023-09-18T03:44:20;14.60;;;8.63;;
74541;SDS011;63015;45.378;20.360;2023-09-18T03:46:21;12.35;;;7.65;;
74541;SDS011;63015;45.378;20.360;2023-09-18T03:48:23;12.35;;;8.18;;
74541;SDS011;63015;45.378;20.360;2023-09-18T03:50:24;12.82;;;8.13;;
74541;SDS011;63015;45.378;20.360;2023-09-18T03:52:25;12.02;;;7.60;;
74541;SDS011;63015;45.378;20.360;2023-09-18T03:54:25;13.35;;;8.10;;
74541;SDS011;63015;45.378;20.360;2023-09-18T03:56:26;13.20;;;7.90;;
74541;SDS011;63015;45.378;20.360;2023-09-18T03:58:27;14.07;;;7.90;;
74541;SDS011;63015;45.378;20.360;2023-09-18T04:00:27;13.32;;;8.13;;
74541;SDS011;63015;45.378;20.360;2023-09-18T04:02:29;15.32;;;8.50;;
74541;SDS011;63015;45.378;20.360;2023-09-18T04:04:30;15.63;;;8.35;;
74541;SDS011;63015;45.378;20.360;2023-09-18T04:06:41;13.65;;;8.40;;
74541;SDS011;63015;45.378;20.360;2023-09-18T04:08:43;14.05;;;8.27;;
74541;SDS011;63015;45.378;20.360;2023-09-18T04:10:43;12.05;;;8.18;;
74541;SDS011;63015;45.378;20.360;2023-09-18T04:12:45;16.85;;;9.00;;
74541;SDS011;63015;45.378;20.360;2023-09-18T04:14:46;13.32;;;9.32;;
74541;SDS011;63015;45.378;20.360;2023-09-18T04:16:47;14.65;;;9.32;;
74541;SDS011;63015;45.378;20.360;2023-09-18T04:18:47;16.23;;;10.18;;
74541;SDS011;63015;45.378;20.360;2023-09-18T04:20:48;16.25;;;9.68;;
74541;SDS011;63015;45.378;20.360;2023-09-18T04:25:29;17.95;;;11.25;;
74541;SDS011;63015;45.378;20.360;2023-09-18T04:27:31;16.98;;;9.93;;
74541;SDS011;63015;45.378;20.360;2023-09-18T04:29:32;21.00;;;12.18;;
74541;SDS011;63015;45.378;20.360;2023-09-18T04:31:32;18.25;;;11.70;;
74541;SDS011;63015;45.378;20.360;2023-09-18T04:33:34;23.02;;;13.27;;
74541;SDS011;63015;45.378;20.360;2023-09-18T04:35:35;24.52;;;14.02;;
74541;SDS011;63015;45.378;20.360;2023-09-18T04:37:37;23.42;;;14.93;;
74541;SDS011;63015;45.378;20.360;2023-09-18T04:39:38;25.30;;;14.65;;
74541;SDS011;63015;45.378;20.360;2023-09-18T04:41:39;21.08;;;12.82;;
74541;SDS011;63015;45.378;20.360;2023-09-18T04:43:40;27.58;;;14.43;;
74541;SDS011;63015;45.378;20.360;2023-09-18T04:45:44;21.33;;;13.07;;
74541;SDS011;63015;45.378;20.360;2023-09-18T04:47:47;20.10;;;11.93;;
74541;SDS011;63015;45.378;20.360;2023-09-18T04:49:48;22.80;;;13.75;;
74541;SDS011;63015;45.378;20.360;2023-09-18T04:51:51;20.45;;;12.70;;
74541;SDS011;63015;45.378;20.360;2023-09-18T04:53:51;21.23;;;12.68;;
74541;SDS011;63015;45.378;20.360;2023-09-18T04:55:52;21.02;;;13.02;;
74541;SDS011;63015;45.378;20.360;2023-09-18T04:57:53;21.17;;;12.18;;
74541;SDS011;63015;45.378;20.360;2023-09-18T04:59:54;20.52;;;12.65;;
74541;SDS011;63015;45.378;20.360;2023-09-18T05:01:54;16.30;;;10.77;;
74541;SDS011;63015;45.378;20.360;2023-09-18T05:03:55;17.95;;;9.88;;
74541;SDS011;63015;45.378;20.360;2023-09-18T05:05:56;18.70;;;10.05;;
74541;SDS011;63015;45.378;20.360;2023-09-18T05:07:56;17.23;;;9.77;;
74541;SDS011;63015;45.378;20.360;2023-09-18T05:09:57;11.07;;;7.18;;
74541;SDS011;63015;45.378;20.360;2023-09-18T05:11:58;15.25;;;7.30;;
74541;SDS011;63015;45.378;20.360;2023-09-18T05:13:59;12.57;;;7.15;;
74541;SDS011;63015;45.378;20.360;2023-09-18T05:15:59;12.73;;;7.68;;
74541;SDS011;63015;45.378;20.360;2023-09-18T05:18:01;12.07;;;7.50;;
74541;SDS011;63015;45.378;20.360;2023-09-18T05:20:04;14.15;;;7.40;;
74541;SDS011;63015;45.378;20.360;2023-09-18T05:22:05;15.80;;;7.40;;
74541;SDS011;63015;45.378;20.360;2023-09-18T05:24:06;11.65;;;7.30;;
74541;SDS011;63015;45.378;20.360;2023-09-18T05:26:07;12.82;;;7.13;;
74541;SDS011;63015;45.378;20.360;2023-09-18T05:28:08;15.48;;;7.05;;
74541;SDS011;63015;45.378;20.360;2023-09-18T05:30:12;11.48;;;6.88;;
74541;SDS011;63015;45.378;20.360;2023-09-18T05:32:21;11.23;;;6.72;;
74541;SDS011;63015;45.378;20.360;2023-09-18T05:34:21;13.50;;;6.80;;
74541;SDS011;63015;45.378;20.360;2023-09-18T05:36:22;12.65;;;7.63;;
74541;SDS011;63015;45.378;20.360;2023-09-18T05:38:22;10.80;;;6.80;;
74541;SDS011;63015;45.378;20.360;2023-09-18T05:40:23;11.82;;;6.93;;
74541;SDS011;63015;45.378;20.360;2023-09-18T05:42:26;12.40;;;6.72;;
74541;SDS011;63015;45.378;20.360;2023-09-18T05:44:27;12.52;;;6.40;;
74541;SDS011;63015;45.378;20.360;2023-09-18T05:46:28;10.85;;;6.65;;
74541;SDS011;63015;45.378;20.360;2023-09-18T05:48:28;17.38;;;7.25;;
74541;SDS011;63015;45.378;20.360;2023-09-18T05:50:30;10.35;;;7.50;;
74541;SDS011;63015;45.378;20.360;2023-09-18T05:52:32;14.13;;;6.53;;
74541;SDS011;63015;45.378;20.360;2023-09-18T05:54:33;10.55;;;6.28;;
74541;SDS011;63015;45.378;20.360;2023-09-18T05:56:34;12.60;;;6.18;;
74541;SDS011;63015;45.378;20.360;2023-09-18T05:58:35;8.63;;;5.43;;
74541;SDS011;63015;45.378;20.360;2023-09-18T06:00:36;10.75;;;5.70;;
74541;SDS011;63015;45.378;20.360;2023-09-18T06:02:37;8.93;;;5.63;;
74541;SDS011;63015;45.378;20.360;2023-09-18T06:04:37;9.60;;;5.72;;
74541;SDS011;63015;45.378;20.360;2023-09-18T06:06:38;9.23;;;5.10;;
74541;SDS011;63015;45.378;20.360;2023-09-18T06:08:39;9.70;;;5.40;;
74541;SDS011;63015;45.378;20.360;2023-09-18T06:10:40;9.57;;;5.63;;
74541;SDS011;63015;45.378;20.360;2023-09-18T06:12:40;8.85;;;5.60;;
74541;SDS011;63015;45.378;20.360;2023-09-18T06:14:41;10.57;;;5.40;;
74541;SDS011;63015;45.378;20.360;2023-09-18T06:16:42;12.15;;;5.55;;
74541;SDS011;63015;45.378;20.360;2023-09-18T06:18:43;9.27;;;4.97;;
74541;SDS011;63015;45.378;20.360;2023-09-18T06:20:44;10.35;;;5.30;;
74541;SDS011;63015;45.378;20.360;2023-09-18T06:22:45;13.10;;;5.20;;
74541;SDS011;63015;45.378;20.360;2023-09-18T06:24:46;12.00;;;5.20;;
74541;SDS011;63015;45.378;20.360;2023-09-18T06:26:47;8.63;;;4.80;;
74541;SDS011;63015;45.378;20.360;2023-09-18T06:28:47;7.70;;;4.35;;
74541;SDS011;63015;45.378;20.360;2023-09-18T06:30:48;9.98;;;4.60;;
74541;SDS011;63015;45.378;20.360;2023-09-18T06:32:49;10.75;;;4.63;;
74541;SDS011;63015;45.378;20.360;2023-09-18T06:34:49;8.25;;;4.72;;
74541;SDS011;63015;45.378;20.360;2023-09-18T06:36:50;7.78;;;4.72;;
74541;SDS011;63015;45.378;20.360;2023-09-18T06:38:51;9.60;;;4.45;;
74541;SDS011;63015;45.378;20.360;2023-09-18T06:40:51;9.75;;;4.63;;
74541;SDS011;63015;45.378;20.360;2023-09-18T06:42:57;7.07;;;3.85;;
74541;SDS011;63015;45.378;20.360;2023-09-18T06:44:58;9.52;;;4.82;;
74541;SDS011;63015;45.378;20.360;2023-09-18T06:47:01;8.65;;;4.50;;
74541;SDS011;63015;45.378;20.360;2023-09-18T06:49:02;12.15;;;4.93;;
74541;SDS011;63015;45.378;20.360;2023-09-18T06:51:03;8.55;;;3.90;;
74541;SDS011;63015;45.378;20.360;2023-09-18T06:53:04;13.10;;;5.13;;
74541;SDS011;63015;45.378;20.360;2023-09-18T06:55:05;8.18;;;4.35;;
74541;SDS011;63015;45.378;20.360;2023-09-18T06:57:05;8.75;;;4.40;;
74541;SDS011;63015;45.378;20.360;2023-09-18T06:59:06;9.52;;;4.03;;
74541;SDS011;63015;45.378;20.360;2023-09-18T07:01:07;8.05;;;4.55;;
74541;SDS011;63015;45.378;20.360;2023-09-18T07:03:07;10.35;;;4.20;;
74541;SDS011;63015;45.378;20.360;2023-09-18T07:05:09;9.55;;;3.88;;
74541;SDS011;63015;45.378;20.360;2023-09-18T07:07:11;9.57;;;4.97;;
74541;SDS011;63015;45.378;20.360;2023-09-18T07:09:12;10.93;;;4.85;;
74541;SDS011;63015;45.378;20.360;2023-09-18T07:11:14;12.57;;;5.50;;
74541;SDS011;63015;45.378;20.360;2023-09-18T07:13:14;10.90;;;4.80;;
74541;SDS011;63015;45.378;20.360;2023-09-18T07:15:15;8.50;;;4.32;;
74541;SDS011;63015;45.378;20.360;2023-09-18T07:17:16;9.77;;;5.03;;
74541;SDS011;63015;45.378;20.360;2023-09-18T07:19:16;11.80;;;4.47;;
74541;SDS011;63015;45.378;20.360;2023-09-18T07:21:17;11.45;;;5.18;;
74541;SDS011;63015;45.378;20.360;2023-09-18T07:23:17;9.63;;;4.65;;
74541;SDS011;63015;45.378;20.360;2023-09-18T07:25:18;9.38;;;5.00;;
74541;SDS011;63015;45.378;20.360;2023-09-18T07:27:19;11.05;;;4.90;;
74541;SDS011;63015;45.378;20.360;2023-09-18T07:29:19;10.73;;;4.13;;
74541;SDS011;63015;45.378;20.360;2023-09-18T07:31:20;8.65;;;4.57;;
74541;SDS011;63015;45.378;20.360;2023-09-18T07:33:21;11.00;;;5.80;;
74541;SDS011;63015;45.378;20.360;2023-09-18T07:35:21;14.02;;;6.63;;
74541;SDS011;63015;45.378;20.360;2023-09-18T07:37:23;11.77;;;5.30;;
74541;SDS011;63015;45.378;20.360;2023-09-18T07:39:23;8.75;;;4.30;;
74541;SDS011;63015;45.378;20.360;2023-09-18T07:41:24;10.02;;;5.28;;
74541;SDS011;63015;45.378;20.360;2023-09-18T07:43:25;12.65;;;5.70;;
74541;SDS011;63015;45.378;20.360;2023-09-18T07:45:25;9.00;;;5.20;;
74541;SDS011;63015;45.378;20.360;2023-09-18T07:47:26;9.02;;;4.85;;
74541;SDS011;63015;45.378;20.360;2023-09-18T07:49:27;9.38;;;4.05;;
74541;SDS011;63015;45.378;20.360;2023-09-18T07:51:27;8.23;;;4.40;;
74541;SDS011;63015;45.378;20.360;2023-09-18T07:53:28;7.30;;;4.30;;
74541;SDS011;63015;45.378;20.360;2023-09-18T07:55:28;8.30;;;4.13;;
74541;SDS011;63015;45.378;20.360;2023-09-18T07:57:30;7.68;;;4.18;;
74541;SDS011;63015;45.378;20.360;2023-09-18T07:59:32;9.10;;;4.57;;
74541;SDS011;63015;45.378;20.360;2023-09-18T08:01:32;8.98;;;4.68;;
74541;SDS011;63015;45.378;20.360;2023-09-18T08:03:34;8.00;;;4.55;;
74541;SDS011;63015;45.378;20.360;2023-09-18T08:05:35;8.57;;;4.40;;
74541;SDS011;63015;45.378;20.360;2023-09-18T08:07:36;6.95;;;3.88;;
74541;SDS011;63015;45.378;20.360;2023-09-18T08:09:37;7.65;;;5.07;;
74541;SDS011;63015;45.378;20.360;2023-09-18T08:11:39;10.70;;;4.50;;
74541;SDS011;63015;45.378;20.360;2023-09-18T08:13:42;12.65;;;5.38;;
74541;SDS011;63015;45.378;20.360;2023-09-18T08:15:42;49.22;;;9.57;;
74541;SDS011;63015;45.378;20.360;2023-09-18T08:17:44;10.45;;;4.72;;
74541;SDS011;63015;45.378;20.360;2023-09-18T08:19:49;9.23;;;4.70;;
74541;SDS011;63015;45.378;20.360;2023-09-18T08:21:53;7.82;;;4.57;;
74541;SDS011;63015;45.378;20.360;2023-09-18T08:23:55;10.15;;;4.57;;
74541;SDS011;63015;45.378;20.360;2023-09-18T08:25:56;9.30;;;4.60;;
74541;SDS011;63015;45.378;20.360;2023-09-18T08:27:57;7.75;;;4.80;;
74541;SDS011;63015;45.378;20.360;2023-09-18T08:29:58;10.23;;;4.57;;
74541;SDS011;63015;45.378;20.360;2023-09-18T08:31:59;10.38;;;4.25;;
74541;SDS011;63015;45.378;20.360;2023-09-18T08:33:59;11.35;;;4.70;;
74541;SDS011;63015;45.378;20.360;2023-09-18T08:36:00;6.97;;;4.22;;
74541;SDS011;63015;45.378;20.360;2023-09-18T08:38:01;16.40;;;4.85;;
74541;SDS011;63015;45.378;20.360;2023-09-18T08:40:02;10.38;;;3.90;;
74541;SDS011;63015;45.378;20.360;2023-09-18T08:42:09;8.57;;;4.30;;
74541;SDS011;63015;45.378;20.360;2023-09-18T08:44:11;7.35;;;4.32;;
74541;SDS011;63015;45.378;20.360;2023-09-18T08:46:12;8.77;;;4.88;;
74541;SDS011;63015;45.378;20.360;2023-09-18T08:48:13;11.20;;;4.60;;
74541;SDS011;63015;45.378;20.360;2023-09-18T08:50:14;7.57;;;4.20;;
74541;SDS011;63015;45.378;20.360;2023-09-18T08:52:15;10.02;;;4.30;;
74541;SDS011;63015;45.378;20.360;2023-09-18T08:54:16;7.38;;;4.38;;
74541;SDS011;63015;45.378;20.360;2023-09-18T08:56:17;8.77;;;3.70;;
74541;SDS011;63015;45.378;20.360;2023-09-18T08:58:18;11.07;;;4.15;;
74541;SDS011;63015;45.378;20.360;2023-09-18T09:00:19;9.95;;;4.53;;
74541;SDS011;63015;45.378;20.360;2023-09-18T09:02:20;10.85;;;4.40;;
74541;SDS011;63015;45.378;20.360;2023-09-18T09:04:21;8.07;;;4.55;;
74541;SDS011;63015;45.378;20.360;2023-09-18T09:06:21;10.30;;;4.10;;
74541;SDS011;63015;45.378;20.360;2023-09-18T09:08:22;7.55;;;4.07;;
74541;SDS011;63015;45.378;20.360;2023-09-18T09:10:23;11.07;;;4.55;;
74541;SDS011;63015;45.378;20.360;2023-09-18T09:15:03;8.20;;;4.18;;
74541;SDS011;63015;45.378;20.360;2023-09-18T09:17:06;9.85;;;4.78;;
74541;SDS011;63015;45.378;20.360;2023-09-18T09:19:07;6.93;;;4.63;;
74541;SDS011;63015;45.378;20.360;2023-09-18T09:21:08;7.60;;;4.78;;
74541;SDS011;63015;45.378;20.360;2023-09-18T09:23:09;8.52;;;4.18;;
74541;SDS011;63015;45.378;20.360;2023-09-18T09:25:32;7.70;;;4.20;;
74541;SDS011;63015;45.378;20.360;2023-09-18T09:27:42;10.40;;;4.30;;
74541;SDS011;63015;45.378;20.360;2023-09-18T09:29:43;10.35;;;5.07;;
74541;SDS011;63015;45.378;20.360;2023-09-18T09:32:14;9.55;;;4.38;;
74541;SDS011;63015;45.378;20.360;2023-09-18T09:34:23;11.25;;;4.60;;
74541;SDS011;63015;45.378;20.360;2023-09-18T09:36:30;11.23;;;4.82;;
74541;SDS011;63015;45.378;20.360;2023-09-18T09:38:31;7.70;;;4.00;;
74541;SDS011;63015;45.378;20.360;2023-09-18T09:40:34;12.27;;;5.20;;
74541;SDS011;63015;45.378;20.360;2023-09-18T09:42:41;9.07;;;4.07;;
74541;SDS011;63015;45.378;20.360;2023-09-18T09:44:42;12.27;;;4.65;;
74541;SDS011;63015;45.378;20.360;2023-09-18T09:46:49;11.63;;;4.05;;
74541;SDS011;63015;45.378;20.360;2023-09-18T09:49:01;11.82;;;4.07;;
74541;SDS011;63015;45.378;20.360;2023-09-18T09:51:03;9.07;;;4.70;;
74541;SDS011;63015;45.378;20.360;2023-09-18T09:53:04;9.23;;;4.82;;
74541;SDS011;63015;45.378;20.360;2023-09-18T09:55:11;9.48;;;4.65;;
74541;SDS011;63015;45.378;20.360;2023-09-18T09:57:19;10.73;;;4.90;;
74541;SDS011;63015;45.378;20.360;2023-09-18T09:59:19;10.15;;;4.78;;
74541;SDS011;63015;45.378;20.360;2023-09-18T10:01:20;8.65;;;4.95;;
74541;SDS011;63015;45.378;20.360;2023-09-18T10:03:21;7.70;;;4.50;;
74541;SDS011;63015;45.378;20.360;2023-09-18T10:05:21;8.95;;;4.55;;
74541;SDS011;63015;45.378;20.360;2023-09-18T10:07:29;9.30;;;4.15;;
74541;SDS011;63015;45.378;20.360;2023-09-18T10:09:30;9.00;;;4.28;;
74541;SDS011;63015;45.378;20.360;2023-09-18T10:11:37;8.43;;;4.15;;
74541;SDS011;63015;45.378;20.360;2023-09-18T10:13:43;12.30;;;4.90;;
74541;SDS011;63015;45.378;20.360;2023-09-18T10:15:47;13.43;;;4.60;;
74541;SDS011;63015;45.378;20.360;2023-09-18T10:17:50;9.25;;;4.25;;
74541;SDS011;63015;45.378;20.360;2023-09-18T10:20:01;9.68;;;4.55;;
74541;SDS011;63015;45.378;20.360;2023-09-18T10:22:12;7.97;;;4.13;;
74541;SDS011;63015;45.378;20.360;2023-09-18T10:24:23;8.70;;;4.93;;
74541;SDS011;63015;45.378;20.360;2023-09-18T10:26:25;9.93;;;4.15;;
74541;SDS011;63015;45.378;20.360;2023-09-18T10:28:30;8.23;;;4.18;;
74541;SDS011;63015;45.378;20.360;2023-09-18T10:32:34;9.25;;;4.38;;
74541;SDS011;63015;45.378;20.360;2023-09-18T10:34:36;8.00;;;4.05;;
74541;SDS011;63015;45.378;20.360;2023-09-18T10:36:37;10.50;;;4.70;;
74541;SDS011;63015;45.378;20.360;2023-09-18T10:38:38;10.20;;;4.53;;
74541;SDS011;63015;45.378;20.360;2023-09-18T10:40:39;11.60;;;4.63;;
74541;SDS011;63015;45.378;20.360;2023-09-18T10:42:41;10.23;;;3.88;;
74541;SDS011;63015;45.378;20.360;2023-09-18T10:44:42;10.32;;;5.25;;
74541;SDS011;63015;45.378;20.360;2023-09-18T10:46:44;9.43;;;4.53;;
74541;SDS011;63015;45.378;20.360;2023-09-18T10:48:46;9.80;;;4.72;;
74541;SDS011;63015;45.378;20.360;2023-09-18T10:50:47;8.88;;;4.82;;
74541;SDS011;63015;45.378;20.360;2023-09-18T10:52:48;8.30;;;4.07;;
74541;SDS011;63015;45.378;20.360;2023-09-18T10:54:49;9.68;;;4.45;;
74541;SDS011;63015;45.378;20.360;2023-09-18T10:56:50;11.40;;;5.25;;
74541;SDS011;63015;45.378;20.360;2023-09-18T10:59:01;12.30;;;4.78;;
74541;SDS011;63015;45.378;20.360;2023-09-18T11:01:04;13.73;;;5.50;;
74541;SDS011;63015;45.378;20.360;2023-09-18T11:03:13;10.13;;;4.63;;
74541;SDS011;63015;45.378;20.360;2023-09-18T11:05:38;12.60;;;4.78;;
74541;SDS011;63015;45.378;20.360;2023-09-18T11:07:38;9.50;;;4.32;;
74541;SDS011;63015;45.378;20.360;2023-09-18T11:09:43;7.68;;;4.10;;
74541;SDS011;63015;45.378;20.360;2023-09-18T11:11:44;8.90;;;4.55;;
74541;SDS011;63015;45.378;20.360;2023-09-18T11:13:52;8.52;;;4.88;;
74541;SDS011;63015;45.378;20.360;2023-09-18T11:18:34;9.15;;;5.00;;
74541;SDS011;63015;45.378;20.360;2023-09-18T11:20:35;7.63;;;4.95;;
74541;SDS011;63015;45.378;20.360;2023-09-18T11:22:38;10.68;;;5.05;;
74541;SDS011;63015;45.378;20.360;2023-09-18T11:24:40;9.05;;;4.70;;
74541;SDS011;63015;45.378;20.360;2023-09-18T11:26:40;7.60;;;5.05;;
74541;SDS011;63015;45.378;20.360;2023-09-18T11:28:42;7.55;;;4.53;;
74541;SDS011;63015;45.378;20.360;2023-09-18T11:30:48;10.10;;;5.18;;
74541;SDS011;63015;45.378;20.360;2023-09-18T11:32:57;10.48;;;5.25;;
74541;SDS011;63015;45.378;20.360;2023-09-18T11:35:06;8.38;;;4.78;;
74541;SDS011;63015;45.378;20.360;2023-09-18T11:37:20;7.32;;;4.93;;
74541;SDS011;63015;45.378;20.360;2023-09-18T11:41:38;8.60;;;4.45;;
74541;SDS011;63015;45.378;20.360;2023-09-18T11:43:40;9.63;;;4.68;;
74541;SDS011;63015;45.378;20.360;2023-09-18T11:45:41;8.02;;;4.85;;
74541;SDS011;63015;45.378;20.360;2023-09-18T11:47:43;8.23;;;4.25;;
74541;SDS011;63015;45.378;20.360;2023-09-18T11:49:47;7.05;;;3.85;;
74541;SDS011;63015;45.378;20.360;2023-09-18T11:51:57;11.23;;;4.40;;
74541;SDS011;63015;45.378;20.360;2023-09-18T11:53:59;8.85;;;4.85;;
74541;SDS011;63015;45.378;20.360;2023-09-18T11:56:02;9.57;;;4.72;;
74541;SDS011;63015;45.378;20.360;2023-09-18T12:00:04;12.45;;;5.22;;
74541;SDS011;63015;45.378;20.360;2023-09-18T12:02:13;8.32;;;4.00;;
74541;SDS011;63015;45.378;20.360;2023-09-18T12:04:27;12.77;;;4.70;;
74541;SDS011;63015;45.378;20.360;2023-09-18T12:06:28;8.30;;;4.40;;
74541;SDS011;63015;45.378;20.360;2023-09-18T12:08:29;8.77;;;3.67;;
74541;SDS011;63015;45.378;20.360;2023-09-18T12:10:31;7.93;;;4.43;;
74541;SDS011;63015;45.378;20.360;2023-09-18T12:12:32;8.10;;;5.05;;